createdAt,value
2017-12-28T00:00:03.387Z,79.01
2017-12-28T00:00:43.913Z,78.69
2017-12-28T00:01:24.158Z,78.69
2017-12-28T00:02:04.676Z,78.4
2017-12-28T00:02:45.980Z,78.59
2017-12-28T00:03:26.140Z,78.21
2017-12-28T00:04:07.933Z,77.73
2017-12-28T00:04:48.627Z,78.5
2017-12-28T00:05:29.278Z,78.44
2017-12-28T00:06:10.099Z,78.25
2017-12-28T00:06:51.605Z,77.87
2017-12-28T00:07:32.338Z,77.39
2017-12-28T00:08:12.740Z,77.77
2017-12-28T00:08:54.183Z,77.77
2017-12-28T00:09:34.607Z,77.39
2017-12-28T00:10:15.040Z,77.2
2017-12-28T00:10:55.654Z,77.2
2017-12-28T00:11:36.206Z,77.11
2017-12-28T00:12:16.976Z,76.82
2017-12-28T00:12:57.678Z,76.54
2017-12-28T00:13:39.568Z,76.82
2017-12-28T00:14:20.842Z,76.82
2017-12-28T00:15:01.999Z,76.92
2017-12-28T00:17:16.413Z,76.82
2017-12-28T00:19:04.873Z,76.82
2017-12-28T00:19:48.675Z,77.11
2017-12-28T00:20:29.597Z,76.16
2017-12-28T00:21:10.855Z,75.96
2017-12-28T00:21:51.465Z,75.96
2017-12-28T00:22:33.273Z,77.11
2017-12-28T00:23:13.880Z,76.44
2017-12-28T00:23:54.200Z,76.35
2017-12-28T00:24:35.216Z,76.06
2017-12-28T00:25:15.613Z,76.54
2017-12-28T00:25:56.551Z,76.73
2017-12-28T00:26:38.744Z,77.2
2017-12-28T00:30:10.497Z,77.01
2017-12-28T00:30:52.345Z,76.69
2017-12-28T00:31:33.172Z,76.97
2017-12-28T00:32:13.645Z,77.45
2017-12-28T00:32:55.389Z,77.87
2017-12-28T00:33:36.688Z,77.87
2017-12-28T00:34:18.119Z,77.11
2017-12-28T00:34:59.377Z,76.35
2017-12-28T00:35:39.852Z,77.01
2017-12-28T00:36:20.702Z,76.82
2017-12-28T00:37:03.845Z,76.44
2017-12-28T00:37:46.676Z,77.01
2017-12-28T00:38:28.656Z,76.5
2017-12-28T00:39:09.522Z,76.63
2017-12-28T00:39:49.762Z,76.4
2017-12-28T00:40:31.614Z,76.31
2017-12-28T00:41:11.971Z,76.88
2017-12-28T00:41:52.390Z,76.78
2017-12-28T00:42:32.798Z,76.78
2017-12-28T00:43:13.622Z,76.97
2017-12-28T00:43:54.026Z,77.83
2017-12-28T00:44:34.544Z,77.92
2017-12-28T00:45:15.107Z,77.83
2017-12-28T00:45:57.548Z,77.17
2017-12-28T00:46:37.698Z,77.45
2017-12-28T00:47:18.316Z,77.36
2017-12-28T00:49:32.509Z,77.92
2017-12-28T00:50:14.292Z,77.73
2017-12-28T00:50:54.578Z,77.92
2017-12-28T00:51:35.017Z,76.88
2017-12-28T00:52:15.704Z,77.45
2017-12-28T00:52:56.362Z,77.73
2017-12-28T00:53:37.267Z,77.92
2017-12-28T00:54:17.726Z,77.45
2017-12-28T00:54:59.125Z,77.07
2017-12-28T00:55:39.513Z,77.45
2017-12-28T00:56:20.547Z,77.17
2017-12-28T00:57:01.012Z,77.45
2017-12-28T00:57:41.525Z,77.26
2017-12-28T00:58:22.479Z,77.55
2017-12-28T01:00:41.469Z,78.21
2017-12-28T01:01:27.703Z,77.92
2017-12-28T01:02:08.582Z,78.4
2017-12-28T01:02:50.100Z,78.21
2017-12-28T01:03:30.761Z,78.02
2017-12-28T01:04:11.875Z,78.11
2017-12-28T01:04:52.605Z,77.83
2017-12-28T01:05:33.350Z,78.3
2017-12-28T01:06:13.934Z,78.02
2017-12-28T01:06:56.596Z,77.73
2017-12-28T01:07:37.363Z,77.36
2017-12-28T01:08:18.618Z,78.02
2017-12-28T01:08:59.061Z,77.55
2017-12-28T01:09:41.488Z,77.36
2017-12-28T01:10:22.325Z,77.92
2017-12-28T01:11:02.757Z,78.02
2017-12-28T01:11:43.506Z,78.4
2017-12-28T01:12:24.190Z,77.92
2017-12-28T01:13:04.748Z,77.55
2017-12-28T01:13:45.796Z,76.88
2017-12-28T01:14:26.650Z,76.4
2017-12-28T01:15:07.401Z,76.4
2017-12-28T01:15:48.891Z,77.11
2017-12-28T01:16:30.318Z,76.4
2017-12-28T01:17:12.546Z,75.93
2017-12-28T01:17:53.542Z,76.78
2017-12-28T01:18:34.999Z,76.97
2017-12-28T01:19:15.390Z,76.63
2017-12-28T01:19:56.088Z,76.88
2017-12-28T01:20:40.127Z,76.78
2017-12-28T01:21:21.505Z,76.35
2017-12-28T01:22:01.703Z,76.5
2017-12-28T01:22:42.161Z,76.78
2017-12-28T01:23:24.415Z,76.31
2017-12-28T01:24:05.161Z,76.5
2017-12-28T01:24:45.619Z,77.11
2017-12-28T01:25:26.085Z,76.4
2017-12-28T01:26:09.501Z,76.4
2017-12-28T01:26:51.235Z,76.31
2017-12-28T01:27:32.184Z,76.03
2017-12-28T01:28:13.606Z,75.93
2017-12-28T01:28:54.212Z,76.4
2017-12-28T01:29:35.933Z,77.26
2017-12-28T01:30:16.355Z,77.26
2017-12-28T01:30:56.983Z,76.4
2017-12-28T01:31:37.354Z,76.03
2017-12-28T01:32:18.528Z,75.93
2017-12-28T01:32:58.926Z,76.5
2017-12-28T01:33:40.393Z,76.69
2017-12-28T01:34:21.895Z,76.69
2017-12-28T01:35:02.428Z,76.97
2017-12-28T01:35:43.483Z,76.5
2017-12-28T01:36:23.961Z,76.31
2017-12-28T01:37:06.086Z,76.31
2017-12-28T01:37:47.334Z,76.4
2017-12-28T01:38:28.232Z,76.35
2017-12-28T01:39:09.505Z,76.03
2017-12-28T01:39:49.814Z,76.03
2017-12-28T01:40:30.344Z,76.31
2017-12-28T01:41:12.596Z,76.4
2017-12-28T01:41:53.313Z,76.69
2017-12-28T01:42:33.999Z,77.07
2017-12-28T01:43:14.509Z,76.88
2017-12-28T01:43:58.288Z,76.88
2017-12-28T01:44:39.864Z,77.55
2017-12-28T01:45:20.216Z,77.73
2017-12-28T01:46:00.641Z,77.73
2017-12-28T01:46:41.610Z,77.55
2017-12-28T01:47:21.462Z,77.36
2017-12-28T01:48:02.649Z,77.73
2017-12-28T01:48:43.642Z,77.73
2017-12-28T01:49:24.621Z,77.07
2017-12-28T01:50:05.801Z,77.36
2017-12-28T01:50:46.493Z,77.26
2017-12-28T01:51:27.178Z,77.26
2017-12-28T01:52:08.241Z,77.36
2017-12-28T01:52:48.644Z,77.26
2017-12-28T01:53:31.897Z,77.73
2017-12-28T01:54:12.677Z,78.4
2017-12-28T01:54:53.886Z,77.55
2017-12-28T01:57:07.981Z,77.55
2017-12-28T01:57:49.123Z,77.36
2017-12-28T01:58:32.488Z,77.26
2017-12-28T01:59:14.380Z,76.5
2017-12-28T01:59:54.769Z,76.97
2017-12-28T02:00:35.341Z,77.45
2017-12-28T02:01:15.805Z,76.88
2017-12-28T02:01:56.229Z,76.59
2017-12-28T02:02:38.118Z,76.21
2017-12-28T02:03:19.599Z,76.54
2017-12-28T02:04:00.855Z,75.74
2017-12-28T02:04:41.567Z,75.4
2017-12-28T02:05:21.989Z,76.03
2017-12-28T02:06:02.612Z,75.64
2017-12-28T02:06:43.019Z,75.93
2017-12-28T02:07:23.657Z,75.36
2017-12-28T02:08:06.112Z,75.17
2017-12-28T02:08:46.869Z,75.84
2017-12-28T02:09:27.335Z,75.93
2017-12-28T02:10:08.123Z,75.74
2017-12-28T02:10:48.527Z,75.84
2017-12-28T02:11:29.377Z,76.12
2017-12-28T02:12:09.992Z,75.93
2017-12-28T02:12:50.783Z,76.69
2017-12-28T02:13:31.279Z,76.88
2017-12-28T02:14:11.889Z,76.78
2017-12-28T02:14:53.269Z,76.88
2017-12-28T02:15:34.098Z,76.5
2017-12-28T02:16:14.696Z,76.31
2017-12-28T02:16:55.949Z,76.31
2017-12-28T02:17:36.541Z,76.5
2017-12-28T02:18:17.396Z,76.12
2017-12-28T02:18:58.185Z,76.12
2017-12-28T02:19:38.948Z,74.98
2017-12-28T02:20:19.293Z,75.26
2017-12-28T02:21:00.297Z,76.03
2017-12-28T02:21:41.266Z,75.17
2017-12-28T02:22:21.698Z,75.17
2017-12-28T02:23:02.777Z,75.07
2017-12-28T02:23:42.686Z,75.36
2017-12-28T02:24:23.104Z,75.93
2017-12-28T02:25:05.064Z,75.74
2017-12-28T02:25:46.606Z,76.12
2017-12-28T02:26:28.108Z,76.78
2017-12-28T02:27:09.224Z,76.4
2017-12-28T02:27:50.700Z,75.74
2017-12-28T02:28:31.178Z,76.12
2017-12-28T02:29:11.794Z,76.03
2017-12-28T02:29:52.479Z,76.03
2017-12-28T02:31:46.588Z,76.78
2017-12-28T02:32:30.332Z,76.4
2017-12-28T02:33:10.869Z,75.84
2017-12-28T02:33:51.936Z,75.93
2017-12-28T02:34:34.023Z,75.93
2017-12-28T02:35:14.388Z,75.36
2017-12-28T02:35:55.687Z,75.36
2017-12-28T02:36:36.085Z,76.12
2017-12-28T02:37:17.275Z,76.31
2017-12-28T02:37:58.681Z,76.12
2017-12-28T02:38:39.261Z,75.93
2017-12-28T02:39:20.623Z,76.12
2017-12-28T02:40:00.992Z,75.84
2017-12-28T02:40:41.912Z,75.84
2017-12-28T02:41:22.836Z,76.12
2017-12-28T02:42:04.057Z,75.45
2017-12-28T02:42:45.137Z,74.88
2017-12-28T02:43:26.243Z,74.98
2017-12-28T02:44:07.257Z,74.88
2017-12-28T02:44:48.913Z,75.07
2017-12-28T02:45:29.995Z,75.45
2017-12-28T02:46:10.513Z,75.45
2017-12-28T02:46:52.180Z,75.84
2017-12-28T02:47:33.800Z,76.12
2017-12-28T02:48:14.898Z,75.36
2017-12-28T02:48:55.983Z,75.36
2017-12-28T02:49:37.005Z,75.55
2017-12-28T02:50:17.756Z,75.17
2017-12-28T02:50:59.303Z,75.84
2017-12-28T02:51:40.041Z,75.74
2017-12-28T02:52:20.679Z,75.74
2017-12-28T02:53:01.192Z,75.26
2017-12-28T02:53:41.543Z,75.74
2017-12-28T02:54:25.153Z,76.21
2017-12-28T02:55:06.648Z,75.93
2017-12-28T02:55:47.846Z,76.03
2017-12-28T02:56:28.987Z,75.84
2017-12-28T02:57:09.726Z,75.64
2017-12-28T02:57:50.570Z,76.21
2017-12-28T02:58:31.279Z,76.4
2017-12-28T02:59:12.168Z,76.27
2017-12-28T02:59:53.242Z,76.69
2017-12-28T03:00:34.553Z,77.07
2017-12-28T03:01:15.508Z,76.59
2017-12-28T03:01:55.933Z,77.07
2017-12-28T03:02:36.681Z,76.59
2017-12-28T03:03:16.820Z,76.4
2017-12-28T03:03:57.378Z,76.4
2017-12-28T03:04:37.774Z,76.12
2017-12-28T03:05:18.195Z,76.5
2017-12-28T03:05:59.317Z,76.31
2017-12-28T03:06:39.841Z,76.5
2017-12-28T03:07:20.351Z,76.21
2017-12-28T03:09:10.965Z,76.31
2017-12-28T03:09:58.013Z,77.07
2017-12-28T03:10:38.402Z,76.97
2017-12-28T03:11:19.248Z,76.88
2017-12-28T03:11:59.836Z,77.17
2017-12-28T03:12:41.794Z,76.37
2017-12-28T03:13:21.634Z,76.88
2017-12-28T03:14:02.957Z,76.75
2017-12-28T03:14:43.365Z,76.65
2017-12-28T03:15:28.200Z,76.84
2017-12-28T03:16:09.630Z,76.93
2017-12-28T03:16:50.677Z,76.88
2017-12-28T03:17:36.442Z,76.97
2017-12-28T03:18:18.113Z,76.69
2017-12-28T03:18:59.055Z,76.97
2017-12-28T03:19:39.809Z,77.07
2017-12-28T03:20:20.683Z,76.21
2017-12-28T03:21:04.664Z,75.74
2017-12-28T03:21:44.998Z,76.03
2017-12-28T03:22:25.519Z,76.5
2017-12-28T03:23:07.797Z,76.4
2017-12-28T03:23:50.801Z,75.84
2017-12-28T03:24:31.205Z,76.5
2017-12-28T03:25:12.139Z,76.12
2017-12-28T03:25:53.534Z,75.84
2017-12-28T03:26:34.273Z,76.31
2017-12-28T03:28:57.389Z,76.31
2017-12-28T03:29:47.862Z,75.64
2017-12-28T03:30:35.174Z,76.12
2017-12-28T03:31:15.660Z,75.45
2017-12-28T03:33:37.293Z,74.6
2017-12-28T03:34:17.737Z,75.45
2017-12-28T03:34:59.534Z,75.36
2017-12-28T03:35:41.194Z,75.93
2017-12-28T03:36:21.706Z,76.12
2017-12-28T03:37:02.280Z,75.93
2017-12-28T03:37:42.772Z,76.12
2017-12-28T03:40:45.297Z,76.4
2017-12-28T03:41:25.393Z,75.93
2017-12-28T03:42:08.966Z,75.26
2017-12-28T03:42:49.886Z,75.36
2017-12-28T03:43:30.724Z,74.98
2017-12-28T03:44:11.223Z,76.12
2017-12-28T03:44:51.446Z,75.26
2017-12-28T03:45:31.978Z,75.93
2017-12-28T03:46:12.581Z,75.17
2017-12-28T03:46:53.198Z,75.17
2017-12-28T03:47:34.696Z,74.98
2017-12-28T03:48:15.807Z,75.74
2017-12-28T03:48:56.317Z,75.93
2017-12-28T03:49:36.754Z,76.37
2017-12-28T03:50:17.568Z,76.46
2017-12-28T03:50:59.947Z,76.27
2017-12-28T03:51:42.031Z,76.46
2017-12-28T03:52:21.101Z,77.07
2017-12-28T03:53:01.485Z,76.84
2017-12-28T03:53:43.240Z,76.65
2017-12-28T03:54:24.180Z,76.56
2017-12-28T03:55:05.170Z,76.65
2017-12-28T03:55:46.586Z,77.31
2017-12-28T03:56:26.440Z,77.41
2017-12-28T03:57:07.213Z,77.7
2017-12-28T03:57:48.095Z,76.84
2017-12-28T03:58:29.534Z,77.22
2017-12-28T03:59:10.247Z,76.84
2017-12-28T03:59:51.526Z,76.93
2017-12-28T04:00:32.697Z,77.07
2017-12-28T04:01:14.281Z,76.21
2017-12-28T04:01:54.899Z,76.78
2017-12-28T04:42:54.960Z,79.22
2017-12-28T04:43:42.143Z,79.03
2017-12-28T04:44:22.642Z,78.83
2017-12-28T04:45:03.119Z,78.93
2017-12-28T04:45:43.746Z,78.83
2017-12-28T04:46:24.490Z,78.36
2017-12-28T04:47:04.978Z,78.64
2017-12-28T04:47:45.799Z,78.36
2017-12-28T04:48:26.374Z,77.98
2017-12-28T04:49:08.876Z,78.08
2017-12-28T04:49:50.336Z,78.36
2017-12-28T04:50:30.590Z,78.36
2017-12-28T04:51:11.010Z,78.36
2017-12-28T04:51:52.142Z,78.45
2017-12-28T04:52:33.125Z,78.36
2017-12-28T04:53:13.607Z,78.83
2017-12-28T04:53:55.595Z,78.45
2017-12-28T04:54:35.958Z,78.45
2017-12-28T04:55:16.660Z,78.45
2017-12-28T04:55:57.402Z,78.08
2017-12-28T04:56:37.781Z,78.45
2017-12-28T04:57:18.179Z,78.17
2017-12-28T04:57:58.670Z,78.17
2017-12-28T04:58:39.283Z,77.98
2017-12-28T04:59:19.708Z,77.89
2017-12-28T05:00:00.231Z,77.79
2017-12-28T05:00:40.968Z,77.7
2017-12-28T05:01:22.320Z,77.31
2017-12-28T05:02:02.334Z,77.41
2017-12-28T05:02:42.847Z,77.7
2017-12-28T05:03:23.536Z,77.83
2017-12-28T05:04:05.277Z,77.12
2017-12-28T05:04:46.227Z,77.31
2017-12-28T05:05:26.792Z,77.45
2017-12-28T05:06:07.174Z,77.26
2017-12-28T05:06:48.019Z,77.07
2017-12-28T05:07:30.118Z,76.84
2017-12-28T05:08:10.084Z,77.31
2017-12-28T05:08:50.439Z,77.6
2017-12-28T05:09:30.965Z,77.51
2017-12-28T05:10:11.789Z,77.41
2017-12-28T05:10:52.707Z,77.51
2017-12-28T05:11:33.811Z,77.41
2017-12-28T05:12:14.800Z,77.89
2017-12-28T05:12:55.420Z,77.92
2017-12-28T05:13:36.340Z,77.07
2017-12-28T05:14:16.863Z,77.12
2017-12-28T05:14:57.475Z,76.75
2017-12-28T05:15:38.136Z,77.03
2017-12-28T05:16:18.641Z,77.17
2017-12-28T05:16:59.779Z,77.26
2017-12-28T05:17:40.078Z,77.17
2017-12-28T05:18:21.188Z,76.97
2017-12-28T05:19:01.587Z,76.88
2017-12-28T05:19:42.425Z,76.78
2017-12-28T05:22:35.847Z,76.4
2017-12-28T05:23:17.619Z,76.31
2017-12-28T05:23:58.476Z,76.31
2017-12-28T05:24:39.392Z,75.64
2017-12-28T05:25:21.321Z,76.78
2017-12-28T05:26:01.797Z,76.69
2017-12-28T05:26:42.348Z,77.07
2017-12-28T05:27:23.176Z,76.88
2017-12-28T05:28:03.878Z,76.69
2017-12-28T05:28:44.137Z,76.88
2017-12-28T05:29:27.551Z,76.97
2017-12-28T05:30:09.435Z,76.97
2017-12-28T05:30:52.093Z,75.93
2017-12-28T05:31:33.021Z,76.21
2017-12-28T05:32:13.972Z,76.4
2017-12-28T05:32:54.281Z,76.97
2017-12-28T05:33:35.471Z,76.88
2017-12-28T05:34:16.163Z,76.59
2017-12-28T05:34:57.092Z,76.5
2017-12-28T05:35:38.258Z,76.97
2017-12-28T05:36:19.702Z,76.97
2017-12-28T05:37:04.883Z,76.97
2017-12-28T05:37:42.860Z,77.17
2017-12-28T05:38:23.539Z,77.07
2017-12-28T05:39:04.511Z,76.97
2017-12-28T05:39:45.221Z,76.69
2017-12-28T05:40:26.929Z,76.78
2017-12-28T05:41:08.192Z,76.97
2017-12-28T05:41:48.830Z,76.21
2017-12-28T05:42:29.793Z,76.5
2017-12-28T05:43:09.783Z,76.03
2017-12-28T05:43:50.280Z,76.21
2017-12-28T05:44:30.672Z,76.78
2017-12-28T05:45:11.102Z,76.69
2017-12-28T05:45:54.022Z,76.78
2017-12-28T05:46:35.290Z,76.97
2017-12-28T05:47:16.430Z,77.17
2017-12-28T05:47:59.353Z,77.07
2017-12-28T05:48:39.501Z,77.22
2017-12-28T05:49:20.352Z,76.78
2017-12-28T05:50:02.045Z,76.69
2017-12-28T05:50:44.079Z,76.78
2017-12-28T05:51:26.089Z,76.97
2017-12-28T05:52:08.666Z,76.5
2017-12-28T05:52:49.179Z,76.88
2017-12-28T05:53:29.569Z,76.31
2017-12-28T05:54:10.277Z,76.12
2017-12-28T05:54:52.874Z,75.93
2017-12-28T05:55:33.654Z,76.03
2017-12-28T05:56:14.189Z,76.12
2017-12-28T05:56:54.994Z,76.21
2017-12-28T05:57:36.032Z,76.03
2017-12-28T05:58:16.543Z,76.4
2017-12-28T05:58:57.840Z,76.4
2017-12-28T05:59:39.629Z,76.59
2017-12-28T06:00:19.042Z,76.88
2017-12-28T06:00:59.502Z,77.03
2017-12-28T06:01:41.284Z,76.69
2017-12-28T06:02:22.268Z,76.88
2017-12-28T06:03:02.937Z,77.07
2017-12-28T06:03:43.344Z,76.69
2017-12-28T06:04:24.635Z,77.03
2017-12-28T06:05:05.741Z,77.26
2017-12-28T06:05:47.310Z,77.45
2017-12-28T06:06:29.769Z,76.88
2017-12-28T06:07:10.389Z,77.07
2017-12-28T06:07:52.235Z,76.88
2017-12-28T06:08:33.906Z,76.69
2017-12-28T06:09:14.405Z,76.59
2017-12-28T06:09:55.036Z,76.97
2017-12-28T06:11:20.109Z,77.55
2017-12-28T06:12:00.386Z,77.45
2017-12-28T06:12:40.761Z,77.73
2017-12-28T06:13:22.640Z,77.89
2017-12-28T06:14:03.572Z,78.17
2017-12-28T06:14:44.564Z,77.89
2017-12-28T06:15:25.860Z,78.36
2017-12-28T06:16:05.580Z,78.27
2017-12-28T06:16:46.877Z,78.08
2017-12-28T06:17:27.529Z,78.36
2017-12-28T06:18:08.888Z,78.45
2017-12-28T06:18:50.760Z,78.55
2017-12-28T06:19:30.920Z,78.55
2017-12-28T06:20:11.184Z,77.98
2017-12-28T06:20:51.711Z,77.6
2017-12-28T06:21:33.014Z,77.98
2017-12-28T06:22:14.004Z,78.55
2017-12-28T06:22:55.390Z,78.55
2017-12-28T06:23:36.315Z,78.36
2017-12-28T06:24:17.454Z,78.27
2017-12-28T06:25:00.659Z,78.5
2017-12-28T06:25:41.718Z,77.73
2017-12-28T06:26:22.420Z,77.55
2017-12-28T06:27:03.436Z,77.83
2017-12-28T06:29:29.351Z,77.45
2017-12-28T06:30:07.510Z,77.7
2017-12-28T06:30:48.217Z,77.89
2017-12-28T06:31:29.020Z,78.64
2017-12-28T06:32:10.515Z,78.27
2017-12-28T06:32:52.850Z,78.27
2017-12-28T06:33:33.625Z,78.45
2017-12-28T06:34:14.475Z,78.93
2017-12-28T06:34:55.027Z,79.41
2017-12-28T06:35:37.849Z,79.03
2017-12-28T06:36:18.601Z,78.83
2017-12-28T06:36:59.238Z,79.03
2017-12-28T06:37:40.490Z,79.03
2017-12-28T06:38:20.963Z,79.31
2017-12-28T06:39:02.274Z,79.41
2017-12-28T06:39:44.875Z,79.03
2017-12-28T06:40:24.966Z,79.03
2017-12-28T06:41:06.063Z,79.5
2017-12-28T06:41:46.787Z,79.12
2017-12-28T06:42:27.182Z,79.31
2017-12-28T06:44:43.053Z,79.6
2017-12-28T06:45:23.562Z,79.31
2017-12-28T06:46:03.943Z,79.97
2017-12-28T06:49:38.901Z,79.97
2017-12-28T06:50:20.491Z,79.31
2017-12-28T06:51:01.296Z,78.93
2017-12-28T06:51:41.700Z,79.03
2017-12-28T06:52:25.847Z,79.31
2017-12-28T06:53:06.657Z,79.65
2017-12-28T06:53:47.147Z,79.74
2017-12-28T06:54:28.810Z,79.94
2017-12-28T06:55:11.493Z,80.22
2017-12-28T06:55:53.404Z,80.32
2017-12-28T06:56:33.739Z,80.32
2017-12-28T06:57:15.138Z,80.32
2017-12-28T06:57:58.314Z,79.74
2017-12-28T06:58:38.348Z,80.6
2017-12-28T06:59:19.848Z,80.6
2017-12-28T07:00:01.003Z,80.41
2017-12-28T07:00:43.236Z,80.13
2017-12-28T07:01:22.719Z,80.79
2017-12-28T07:02:03.408Z,80.88
2017-12-28T07:02:45.685Z,80.51
2017-12-28T07:03:25.688Z,80.6
2017-12-28T07:04:06.111Z,80.74
2017-12-28T07:04:50.663Z,79.6
2017-12-28T07:05:31.990Z,79.31
2017-12-28T07:06:13.080Z,79.31
2017-12-28T07:06:53.338Z,79.41
2017-12-28T07:07:34.533Z,78.83
2017-12-28T07:08:16.921Z,79.12
2017-12-28T07:08:59.035Z,79.6
2017-12-28T07:09:41.026Z,78.83
2017-12-28T07:11:43.099Z,78.08
2017-12-28T07:15:37.440Z,78.55
2017-12-28T07:16:15.925Z,78.93
2017-12-28T07:16:58.120Z,78.17
2017-12-28T07:17:39.321Z,78.74
2017-12-28T07:18:19.884Z,78.64
2017-12-28T07:19:00.079Z,78.27
2017-12-28T07:19:40.729Z,79.03
2017-12-28T07:20:21.124Z,79.5
2017-12-28T07:21:01.986Z,79.12
2017-12-28T07:21:42.770Z,78.83
2017-12-28T07:22:23.800Z,79.31
2017-12-28T07:23:05.116Z,78.93
2017-12-28T07:23:47.045Z,78.83
2017-12-28T07:24:27.877Z,79.03
2017-12-28T07:25:08.855Z,78.27
2017-12-28T07:25:49.531Z,78.4
2017-12-28T07:26:30.801Z,78.55
2017-12-28T07:27:11.345Z,78.11
2017-12-28T07:27:52.183Z,77.73
2017-12-28T07:28:33.668Z,77.73
2017-12-28T07:29:15.199Z,77.26
2017-12-28T07:29:59.078Z,77.45
2017-12-28T07:30:42.124Z,77.26
2017-12-28T07:31:24.772Z,76.4
2017-12-28T07:32:05.720Z,76.4
2017-12-28T07:32:45.585Z,76.46
2017-12-28T07:33:25.890Z,76.84
2017-12-28T07:34:08.342Z,76.93
2017-12-28T07:34:48.869Z,77.12
2017-12-28T07:35:29.696Z,77.6
2017-12-28T07:36:10.197Z,77.79
2017-12-28T07:36:51.389Z,77.45
2017-12-28T07:37:31.957Z,76.88
2017-12-28T07:38:13.669Z,76.78
2017-12-28T07:38:53.128Z,76.97
2017-12-28T07:39:33.801Z,76.69
2017-12-28T07:40:16.347Z,76.31
2017-12-28T07:40:58.843Z,76.59
2017-12-28T07:41:39.531Z,76.03
2017-12-28T07:42:20.136Z,76.21
2017-12-28T07:43:00.751Z,76.27
2017-12-28T07:43:43.848Z,76.84
2017-12-28T07:44:22.815Z,77.41
2017-12-28T07:45:03.316Z,77.22
2017-12-28T07:45:44.096Z,77.31
2017-12-28T07:46:24.869Z,77.41
2017-12-28T07:47:05.515Z,77.79
2017-12-28T07:47:47.720Z,77.12
2017-12-28T07:48:27.996Z,77.51
2017-12-28T07:49:09.024Z,77.51
2017-12-28T07:49:51.548Z,76.84
2017-12-28T07:50:32.670Z,77.41
2017-12-28T07:51:13.062Z,77.89
2017-12-28T07:51:53.835Z,77.22
2017-12-28T07:52:34.272Z,77.89
2017-12-28T07:53:16.299Z,77.22
2017-12-28T07:53:56.467Z,77.22
2017-12-28T07:54:37.200Z,76.93
2017-12-28T07:55:17.912Z,76.93
2017-12-28T07:55:58.759Z,77.41
2017-12-28T07:56:40.336Z,77.79
2017-12-28T07:57:21.021Z,78.83
2017-12-28T08:00:02.795Z,78.93
2017-12-28T08:00:44.379Z,78.99
2017-12-28T08:01:24.486Z,78.93
2017-12-28T08:02:05.443Z,78.55
2017-12-28T08:02:47.681Z,78.83
2017-12-28T08:03:27.840Z,78.83
2017-12-28T08:04:09.275Z,78.36
2017-12-28T08:04:51.178Z,78.36
2017-12-28T08:05:31.396Z,78.36
2017-12-28T08:06:11.259Z,78.27
2017-12-28T08:08:28.225Z,77.98
2017-12-28T08:09:09.037Z,78.45
2017-12-28T08:09:49.836Z,78.74
2017-12-28T08:10:30.727Z,78.36
2017-12-28T08:11:10.281Z,78.08
2017-12-28T08:11:51.739Z,77.79
2017-12-28T08:12:32.941Z,77.79
2017-12-28T08:13:13.147Z,77.7
2017-12-28T08:13:53.789Z,77.6
2017-12-28T08:14:34.612Z,77.79
2017-12-28T08:16:53.713Z,77.51
2017-12-28T08:17:34.820Z,77.89
2017-12-28T08:18:15.101Z,76.84
2017-12-28T08:18:56.275Z,77.12
2017-12-28T08:19:38.617Z,76.84
2017-12-28T08:20:17.562Z,75.89
2017-12-28T08:20:58.575Z,76.27
2017-12-28T08:21:38.839Z,76.56
2017-12-28T08:22:19.804Z,76.46
2017-12-28T08:23:00.068Z,76.18
2017-12-28T08:23:41.060Z,76.08
2017-12-28T08:24:22.185Z,76.37
2017-12-28T08:25:03.242Z,76.27
2017-12-28T08:25:43.808Z,76.08
2017-12-28T08:26:25.415Z,76.27
2017-12-28T08:27:06.018Z,77.22
2017-12-28T08:27:47.186Z,77.03
2017-12-28T08:28:29.595Z,76.65
2017-12-28T08:29:10.710Z,76.75
2017-12-28T08:31:25.770Z,76.31
2017-12-28T08:32:11.378Z,76.4
2017-12-28T08:34:45.258Z,75.93
2017-12-28T08:35:25.864Z,76.4
2017-12-28T08:36:06.504Z,76.4
2017-12-28T08:36:47.680Z,76.59
2017-12-28T08:37:29.859Z,76.12
2017-12-28T08:38:10.347Z,75.79
2017-12-28T08:38:53.429Z,76.12
2017-12-28T08:40:47.932Z,76.37
2017-12-28T08:41:28.405Z,76.46
2017-12-28T08:42:11.159Z,76.93
2017-12-28T08:42:53.026Z,77.41
2017-12-28T08:43:33.915Z,77.36
2017-12-28T08:44:17.083Z,77.26
2017-12-28T08:45:01.009Z,77.07
2017-12-28T08:45:42.607Z,77.26
2017-12-28T08:46:23.574Z,76.69
2017-12-28T08:47:04.533Z,75.84
2017-12-28T08:47:45.437Z,76.5
2017-12-28T08:48:26.640Z,76.12
2017-12-28T08:49:08.038Z,76.12
2017-12-28T08:49:51.928Z,75.84
2017-12-28T08:50:33.504Z,75.36
2017-12-28T08:51:16.320Z,75.74
2017-12-28T08:51:57.603Z,76.21
2017-12-28T08:52:38.245Z,75.17
2017-12-28T08:53:18.928Z,75.93
2017-12-28T08:54:01.698Z,75.93
2017-12-28T08:54:42.877Z,76.03
2017-12-28T08:55:23.370Z,75.93
2017-12-28T08:56:04.304Z,75.93
2017-12-28T08:56:45.030Z,76.03
2017-12-28T08:57:25.470Z,75.93
2017-12-28T08:58:06.588Z,75.93
2017-12-28T08:58:47.945Z,76.21
2017-12-28T08:59:29.129Z,74.88
2017-12-28T09:01:23.515Z,74.88
2017-12-28T09:03:16.956Z,75.17
2017-12-28T09:03:58.936Z,74.98
2017-12-28T09:04:39.527Z,74.88
2017-12-28T09:05:20.390Z,74.79
2017-12-28T09:06:02.452Z,74.6
2017-12-28T09:06:42.108Z,74.79
2017-12-28T09:10:48.827Z,74.88
2017-12-28T09:11:39.513Z,75.55
2017-12-28T09:12:16.323Z,75.36
2017-12-28T09:12:56.342Z,75.55
2017-12-28T09:13:36.816Z,75.45
2017-12-28T09:14:18.020Z,74.69
2017-12-28T09:14:59.208Z,74.31
2017-12-28T09:15:40.425Z,74.51
2017-12-28T09:16:21.098Z,75.26
2017-12-28T09:17:03.000Z,75.55
2017-12-28T09:17:43.395Z,75.55
2017-12-28T09:18:24.009Z,75.17
2017-12-28T09:19:08.308Z,75.26
2017-12-28T09:19:48.872Z,74.98
2017-12-28T09:20:30.090Z,74.88
2017-12-28T09:21:10.848Z,75.26
2017-12-28T09:21:52.340Z,74.69
2017-12-28T09:22:33.125Z,74.41
2017-12-28T09:23:14.750Z,74.6
2017-12-28T09:23:54.992Z,74.69
2017-12-28T09:24:35.452Z,74.51
2017-12-28T09:25:15.892Z,74.6
2017-12-28T09:25:56.249Z,74.22
2017-12-28T09:26:37.447Z,73.93
2017-12-28T09:27:17.940Z,74.22
2017-12-28T09:27:58.392Z,74.79
2017-12-28T09:28:38.808Z,74.6
2017-12-28T09:29:20.639Z,74.6
2017-12-28T09:30:01.541Z,74.22
2017-12-28T09:30:42.623Z,74.22
2017-12-28T09:31:25.525Z,74.6
2017-12-28T09:32:07.056Z,74.22
2017-12-28T09:32:48.124Z,74.51
2017-12-28T09:33:30.778Z,73.84
2017-12-28T09:34:13.121Z,73.59
2017-12-28T09:34:54.959Z,72.83
2017-12-28T09:35:36.913Z,72.35
2017-12-28T09:36:17.783Z,72.07
2017-12-28T09:36:58.254Z,71.5
2017-12-28T09:37:38.905Z,70.87
2017-12-28T09:38:19.376Z,71.44
2017-12-28T09:39:00.807Z,70.87
2017-12-28T09:39:41.806Z,70.49
2017-12-28T09:40:22.221Z,69.82
2017-12-28T09:41:04.462Z,70.24
2017-12-28T09:41:44.441Z,68.62
2017-12-28T09:42:25.510Z,67.86
2017-12-28T09:43:06.228Z,67.89
2017-12-28T09:43:46.730Z,67.32
2017-12-28T09:44:27.556Z,65.89
2017-12-28T09:45:07.821Z,65.99
2017-12-28T09:45:49.225Z,64.87
2017-12-28T09:46:30.848Z,64.31
2017-12-28T09:47:11.594Z,63.73
2017-12-28T09:47:52.604Z,62.97
2017-12-28T09:48:33.395Z,62.49
2017-12-28T09:49:13.898Z,62.52
2017-12-28T09:49:54.522Z,62.15
2017-12-28T09:50:37.046Z,62.24
2017-12-28T09:51:18.235Z,62.24
2017-12-28T09:51:58.640Z,62.68
2017-12-28T09:52:39.954Z,62.49
2017-12-28T09:53:20.962Z,63.07
2017-12-28T09:54:01.784Z,63.17
2017-12-28T09:54:43.075Z,63.8
2017-12-28T09:55:23.774Z,64.47
2017-12-28T09:56:04.611Z,64.84
2017-12-28T09:56:45.442Z,64.75
2017-12-28T09:57:26.897Z,64.94
2017-12-28T09:58:08.833Z,65.38
2017-12-28T09:58:50.315Z,66.18
2017-12-28T09:59:31.534Z,66.53
2017-12-28T10:00:12.148Z,66.91
2017-12-28T10:00:52.669Z,66.72
2017-12-28T10:01:33.254Z,67.57
2017-12-28T10:02:14.010Z,67.29
2017-12-28T10:02:56.302Z,67.1
2017-12-28T10:03:41.274Z,66.72
2017-12-28T10:42:33.611Z,66.59
2017-12-28T10:43:13.900Z,67.44
2017-12-28T10:43:54.457Z,66.78
2017-12-28T10:44:35.424Z,65.92
2017-12-28T10:45:16.829Z,65.83
2017-12-28T10:45:57.114Z,66.3
2017-12-28T10:46:37.880Z,66.2
2017-12-28T10:47:18.880Z,65.73
2017-12-28T10:47:59.218Z,65.83
2017-12-28T10:48:39.827Z,65.54
2017-12-28T10:49:20.798Z,65.51
2017-12-28T10:50:01.562Z,66.08
2017-12-28T10:50:42.740Z,66.27
2017-12-28T10:51:23.488Z,65.51
2017-12-28T10:52:03.909Z,66.08
2017-12-28T10:52:45.906Z,65.8
2017-12-28T10:55:09.671Z,65.32
2017-12-28T10:55:54.971Z,65.6
2017-12-28T10:56:35.705Z,65.13
2017-12-28T10:57:17.456Z,65.13
2017-12-28T11:00:14.664Z,65.8
2017-12-28T11:02:20.666Z,65.83
2017-12-28T11:03:03.971Z,65.92